sensor_id;sensor_type;location;lat;lon;timestamp;pressure;altitude;pressure_sealevel;temperature;humidity
77212;BME280;66206;0.000;0.000;2023-02-23T00:02:21;97469.58;;;23.01;29.96
77212;BME280;66206;0.000;0.000;2023-02-23T00:04:48;97474.67;;;23.04;29.91
77212;BME280;66206;0.000;0.000;2023-02-23T00:07:14;97475.94;;;23.21;29.89
77212;BME280;66206;0.000;0.000;2023-02-23T00:09:41;97475.85;;;23.00;30.09
77212;BME280;66206;0.000;0.000;2023-02-23T00:12:08;97475.15;;;23.08;30.05
77212;BME280;66206;0.000;0.000;2023-02-23T00:14:35;97475.26;;;23.00;30.09
77212;BME280;66206;0.000;0.000;2023-02-23T00:17:02;97477.83;;;22.91;30.21
77212;BME280;66206;0.000;0.000;2023-02-23T00:19:29;97478.30;;;23.00;30.13
77212;BME280;66206;0.000;0.000;2023-02-23T00:21:56;97477.85;;;22.90;30.26
77212;BME280;66206;0.000;0.000;2023-02-23T00:24:22;97475.51;;;22.84;30.15
77212;BME280;66206;0.000;0.000;2023-02-23T00:26:49;97471.35;;;22.93;30.14
77212;BME280;66206;0.000;0.000;2023-02-23T00:29:16;97471.98;;;22.84;30.28
77212;BME280;66206;0.000;0.000;2023-02-23T00:31:44;97469.50;;;22.83;30.19
77212;BME280;66206;0.000;0.000;2023-02-23T00:34:11;97466.70;;;22.86;30.03
77212;BME280;66206;0.000;0.000;2023-02-23T00:36:38;97469.22;;;22.72;30.19
77212;BME280;66206;0.000;0.000;2023-02-23T00:39:06;97467.20;;;22.76;30.15
77212;BME280;66206;0.000;0.000;2023-02-23T00:41:33;97464.17;;;22.87;30.10
77212;BME280;66206;0.000;0.000;2023-02-23T00:43:59;97465.70;;;22.65;30.21
77212;BME280;66206;0.000;0.000;2023-02-23T00:46:27;97468.95;;;22.69;30.18
77212;BME280;66206;0.000;0.000;2023-02-23T00:48:54;97467.54;;;22.75;30.06
77212;BME280;66206;0.000;0.000;2023-02-23T00:51:22;97467.10;;;22.72;30.17
77212;BME280;66206;0.000;0.000;2023-02-23T00:53:52;97470.74;;;22.70;30.06
77212;BME280;66206;0.000;0.000;2023-02-23T00:56:19;97470.45;;;22.69;30.06
77212;BME280;66206;0.000;0.000;2023-02-23T00:58:46;97472.91;;;22.61;30.15
77212;BME280;66206;0.000;0.000;2023-02-23T01:01:13;97473.14;;;22.42;30.33
77212;BME280;66206;0.000;0.000;2023-02-23T01:03:40;97475.44;;;22.63;30.11
77212;BME280;66206;0.000;0.000;2023-02-23T01:06:07;97479.20;;;22.57;30.10
77212;BME280;66206;0.000;0.000;2023-02-23T01:08:36;97476.83;;;22.68;30.05
77212;BME280;66206;0.000;0.000;2023-02-23T01:11:04;97477.05;;;22.65;30.02
77212;BME280;66206;0.000;0.000;2023-02-23T01:13:32;97477.88;;;22.58;30.05
77212;BME280;66206;0.000;0.000;2023-02-23T01:15:58;97475.07;;;22.48;30.07
77212;BME280;66206;0.000;0.000;2023-02-23T01:18:25;97477.32;;;22.59;30.07
77212;BME280;66206;0.000;0.000;2023-02-23T01:20:52;97476.65;;;22.39;30.27
77212;BME280;66206;0.000;0.000;2023-02-23T01:23:19;97475.08;;;22.68;30.00
77212;BME280;66206;0.000;0.000;2023-02-23T01:25:45;97472.38;;;22.47;30.09
77212;BME280;66206;0.000;0.000;2023-02-23T01:28:12;97475.07;;;22.49;30.11
77212;BME280;66206;0.000;0.000;2023-02-23T01:30:39;97474.93;;;22.72;30.08
77212;BME280;66206;0.000;0.000;2023-02-23T01:33:06;97476.42;;;22.39;30.17
77212;BME280;66206;0.000;0.000;2023-02-23T01:35:32;97475.34;;;22.25;30.31
77212;BME280;66206;0.000;0.000;2023-02-23T01:37:59;97472.48;;;22.37;30.25
77212;BME280;66206;0.000;0.000;2023-02-23T01:40:26;97472.59;;;22.58;30.05
77212;BME280;66206;0.000;0.000;2023-02-23T01:42:53;97472.15;;;22.41;30.18
77212;BME280;66206;0.000;0.000;2023-02-23T01:45:23;97471.43;;;22.29;30.15
77212;BME280;66206;0.000;0.000;2023-02-23T01:47:51;97472.98;;;22.52;29.96
77212;BME280;66206;0.000;0.000;2023-02-23T01:50:19;97467.79;;;22.25;30.19
77212;BME280;66206;0.000;0.000;2023-02-23T01:52:47;97466.13;;;22.36;30.20
77212;BME280;66206;0.000;0.000;2023-02-23T01:55:15;97466.94;;;22.49;30.01
77212;BME280;66206;0.000;0.000;2023-02-23T01:57:43;97461.61;;;22.50;30.04
77212;BME280;66206;0.000;0.000;2023-02-23T02:00:10;97461.22;;;22.40;30.03
77212;BME280;66206;0.000;0.000;2023-02-23T02:02:37;97461.57;;;22.40;30.03
77212;BME280;66206;0.000;0.000;2023-02-23T02:05:04;97462.16;;;22.33;30.15
77212;BME280;66206;0.000;0.000;2023-02-23T02:07:31;97465.06;;;22.34;30.09
77212;BME280;66206;0.000;0.000;2023-02-23T02:09:58;97467.25;;;22.24;30.05
77212;BME280;66206;0.000;0.000;2023-02-23T02:12:25;97465.08;;;22.30;30.00
77212;BME280;66206;0.000;0.000;2023-02-23T02:14:51;97466.31;;;22.26;30.05
77212;BME280;66206;0.000;0.000;2023-02-23T02:17:21;97464.58;;;22.24;30.10
77212;BME280;66206;0.000;0.000;2023-02-23T02:19:55;97463.49;;;22.33;30.05
77212;BME280;66206;0.000;0.000;2023-02-23T02:22:21;97462.24;;;22.45;29.94
77212;BME280;66206;0.000;0.000;2023-02-23T02:25:49;97463.71;;;22.19;29.96
77212;BME280;66206;0.000;0.000;2023-02-23T02:27:18;97461.29;;;22.24;30.03
77212;BME280;66206;0.000;0.000;2023-02-23T02:29:46;97462.35;;;22.14;30.11
77212;BME280;66206;0.000;0.000;2023-02-23T02:35:01;97459.37;;;22.15;30.02
77212;BME280;66206;0.000;0.000;2023-02-23T02:38:00;97458.70;;;22.19;30.04
77212;BME280;66206;0.000;0.000;2023-02-23T02:39:23;97456.72;;;22.18;30.01
77212;BME280;66206;0.000;0.000;2023-02-23T02:41:54;97458.10;;;22.28;29.94
77212;BME280;66206;0.000;0.000;2023-02-23T02:44:23;97456.29;;;22.26;29.96
77212;BME280;66206;0.000;0.000;2023-02-23T02:46:48;97451.35;;;22.27;29.89
77212;BME280;66206;0.000;0.000;2023-02-23T02:49:18;97453.20;;;22.20;30.04
77212;BME280;66206;0.000;0.000;2023-02-23T02:51:46;97453.25;;;22.14;30.02
77212;BME280;66206;0.000;0.000;2023-02-23T02:54:17;97452.69;;;22.21;29.98
77212;BME280;66206;0.000;0.000;2023-02-23T02:56:43;97453.06;;;22.11;29.98
77212;BME280;66206;0.000;0.000;2023-02-23T02:59:11;97454.35;;;22.22;29.88
77212;BME280;66206;0.000;0.000;2023-02-23T03:01:38;97457.16;;;22.24;29.96
77212;BME280;66206;0.000;0.000;2023-02-23T03:04:18;97460.19;;;22.27;29.98
77212;BME280;66206;0.000;0.000;2023-02-23T03:06:37;97460.56;;;22.19;29.86
77212;BME280;66206;0.000;0.000;2023-02-23T03:09:06;97462.34;;;22.30;29.79
77212;BME280;66206;0.000;0.000;2023-02-23T03:11:34;97464.02;;;22.22;29.85
77212;BME280;66206;0.000;0.000;2023-02-23T03:14:01;97461.81;;;22.33;29.79
77212;BME280;66206;0.000;0.000;2023-02-23T03:16:30;97461.22;;;22.32;29.74
77212;BME280;66206;0.000;0.000;2023-02-23T03:18:54;97462.54;;;22.30;29.77
77212;BME280;66206;0.000;0.000;2023-02-23T03:21:21;97464.98;;;22.28;29.76
77212;BME280;66206;0.000;0.000;2023-02-23T03:23:52;97464.77;;;22.23;29.71
77212;BME280;66206;0.000;0.000;2023-02-23T03:26:19;97465.15;;;22.27;29.79
77212;BME280;66206;0.000;0.000;2023-02-23T03:28:48;97463.05;;;22.22;29.66
77212;BME280;66206;0.000;0.000;2023-02-23T03:31:13;97465.82;;;22.18;29.75
77212;BME280;66206;0.000;0.000;2023-02-23T03:33:44;97466.34;;;21.98;29.87
77212;BME280;66206;0.000;0.000;2023-02-23T03:36:12;97468.55;;;22.16;29.75
77212;BME280;66206;0.000;0.000;2023-02-23T03:38:44;97466.63;;;22.19;29.71
77212;BME280;66206;0.000;0.000;2023-02-23T03:41:12;97464.92;;;22.22;29.65
77212;BME280;66206;0.000;0.000;2023-02-23T03:43:44;97464.61;;;22.20;29.76
77212;BME280;66206;0.000;0.000;2023-02-23T03:46:12;97464.42;;;22.28;29.63
77212;BME280;66206;0.000;0.000;2023-02-23T03:48:39;97464.47;;;22.28;29.63
77212;BME280;66206;0.000;0.000;2023-02-23T03:51:08;97467.49;;;22.16;29.62
77212;BME280;66206;0.000;0.000;2023-02-23T03:53:39;97467.01;;;22.03;29.86
77212;BME280;66206;0.000;0.000;2023-02-23T03:56:03;97467.76;;;22.10;29.81
77212;BME280;66206;0.000;0.000;2023-02-23T03:58:32;97466.85;;;22.15;29.65
77212;BME280;66206;0.000;0.000;2023-02-23T04:01:01;97464.35;;;22.19;29.67
77212;BME280;66206;0.000;0.000;2023-02-23T04:03:29;97463.73;;;21.91;29.78
77212;BME280;66206;0.000;0.000;2023-02-23T04:05:57;97465.62;;;22.13;29.68
77212;BME280;66206;0.000;0.000;2023-02-23T04:08:29;97467.70;;;22.12;29.68
77212;BME280;66206;0.000;0.000;2023-02-23T04:10:53;97464.85;;;22.03;29.79
77212;BME280;66206;0.000;0.000;2023-02-23T04:13:19;97465.49;;;22.02;29.60
77212;BME280;66206;0.000;0.000;2023-02-23T04:15:49;97467.31;;;22.26;29.48
77212;BME280;66206;0.000;0.000;2023-02-23T04:18:13;97471.37;;;22.25;29.47
77212;BME280;66206;0.000;0.000;2023-02-23T04:20:40;97473.85;;;22.25;29.24
77212;BME280;66206;0.000;0.000;2023-02-23T04:23:07;97471.76;;;22.37;29.18
77212;BME280;66206;0.000;0.000;2023-02-23T04:25:34;97474.04;;;22.23;29.27
77212;BME280;66206;0.000;0.000;2023-02-23T04:28:01;97472.14;;;22.56;29.08
77212;BME280;66206;0.000;0.000;2023-02-23T04:30:27;97470.46;;;22.34;29.10
77212;BME280;66206;0.000;0.000;2023-02-23T04:32:54;97474.95;;;22.40;28.92
77212;BME280;66206;0.000;0.000;2023-02-23T04:35:21;97476.78;;;22.48;28.87
77212;BME280;66206;0.000;0.000;2023-02-23T04:37:48;97475.20;;;22.59;28.78
77212;BME280;66206;0.000;0.000;2023-02-23T04:40:14;97474.83;;;22.48;28.85
77212;BME280;66206;0.000;0.000;2023-02-23T04:42:41;97478.06;;;22.48;28.87
77212;BME280;66206;0.000;0.000;2023-02-23T04:45:09;97478.71;;;22.39;29.00
77212;BME280;66206;0.000;0.000;2023-02-23T04:47:36;97477.53;;;22.60;28.78
77212;BME280;66206;0.000;0.000;2023-02-23T04:50:03;97480.57;;;22.60;28.85
77212;BME280;66206;0.000;0.000;2023-02-23T04:52:29;97480.35;;;22.48;28.88
77212;BME280;66206;0.000;0.000;2023-02-23T04:54:56;97482.94;;;22.56;28.79
77212;BME280;66206;0.000;0.000;2023-02-23T04:57:23;97483.15;;;22.48;29.09
77212;BME280;66206;0.000;0.000;2023-02-23T04:59:49;97486.13;;;22.40;29.00
77212;BME280;66206;0.000;0.000;2023-02-23T05:02:16;97485.71;;;22.51;28.91
77212;BME280;66206;0.000;0.000;2023-02-23T05:04:43;97486.33;;;22.49;28.94
77212;BME280;66206;0.000;0.000;2023-02-23T05:07:09;97487.75;;;22.55;28.82
77212;BME280;66206;0.000;0.000;2023-02-23T05:09:36;97485.99;;;22.77;28.82
77212;BME280;66206;0.000;0.000;2023-02-23T05:12:03;97488.50;;;22.55;28.82
77212;BME280;66206;0.000;0.000;2023-02-23T05:14:30;97486.25;;;22.63;28.83
77212;BME280;66206;0.000;0.000;2023-02-23T05:16:57;97484.85;;;22.76;28.79
77212;BME280;66206;0.000;0.000;2023-02-23T05:19:24;97484.01;;;22.53;28.92
77212;BME280;66206;0.000;0.000;2023-02-23T05:21:51;97484.32;;;22.59;29.00
77212;BME280;66206;0.000;0.000;2023-02-23T05:24:18;97484.29;;;22.34;29.11
77212;BME280;66206;0.000;0.000;2023-02-23T05:26:44;97484.43;;;22.37;29.12
77212;BME280;66206;0.000;0.000;2023-02-23T05:29:11;97487.29;;;22.15;29.34
77212;BME280;66206;0.000;0.000;2023-02-23T05:31:38;97487.13;;;22.38;29.19
77212;BME280;66206;0.000;0.000;2023-02-23T05:34:04;97486.95;;;22.32;29.14
77212;BME280;66206;0.000;0.000;2023-02-23T05:36:31;97485.95;;;22.32;29.15
77212;BME280;66206;0.000;0.000;2023-02-23T05:38:58;97487.70;;;22.46;28.96
77212;BME280;66206;0.000;0.000;2023-02-23T05:41:25;97487.50;;;22.37;29.13
77212;BME280;66206;0.000;0.000;2023-02-23T05:43:53;97488.04;;;22.37;29.09
77212;BME280;66206;0.000;0.000;2023-02-23T05:46:20;97488.39;;;22.54;28.93
77212;BME280;66206;0.000;0.000;2023-02-23T05:48:48;97486.54;;;22.46;28.98
77212;BME280;66206;0.000;0.000;2023-02-23T05:51:15;97484.11;;;22.37;28.96
77212;BME280;66206;0.000;0.000;2023-02-23T05:53:42;97484.46;;;22.34;29.03
77212;BME280;66206;0.000;0.000;2023-02-23T05:56:11;97489.04;;;22.25;29.19
77212;BME280;66206;0.000;0.000;2023-02-23T05:58:38;97484.81;;;22.31;28.96
77212;BME280;66206;0.000;0.000;2023-02-23T06:01:05;97488.65;;;22.18;29.11
77212;BME280;66206;0.000;0.000;2023-02-23T06:03:32;97492.32;;;22.33;29.08
77212;BME280;66206;0.000;0.000;2023-02-23T06:05:59;97493.96;;;22.31;29.04
77212;BME280;66206;0.000;0.000;2023-02-23T06:08:25;97494.65;;;22.31;29.05
77212;BME280;66206;0.000;0.000;2023-02-23T06:10:52;97494.65;;;22.20;29.03
77212;BME280;66206;0.000;0.000;2023-02-23T06:13:19;97497.87;;;22.31;28.98
77212;BME280;66206;0.000;0.000;2023-02-23T06:15:45;97499.97;;;22.44;28.98
77212;BME280;66206;0.000;0.000;2023-02-23T06:18:12;97501.78;;;22.30;29.01
77212;BME280;66206;0.000;0.000;2023-02-23T06:20:39;97504.17;;;22.44;28.96
77212;BME280;66206;0.000;0.000;2023-02-23T06:23:06;97506.63;;;22.39;28.97
77212;BME280;66206;0.000;0.000;2023-02-23T06:25:32;97509.34;;;22.35;28.88
77212;BME280;66206;0.000;0.000;2023-02-23T06:27:59;97507.99;;;22.45;28.77
77212;BME280;66206;0.000;0.000;2023-02-23T06:30:26;97516.53;;;22.54;28.86
77212;BME280;66206;0.000;0.000;2023-02-23T06:32:53;97517.65;;;22.43;28.78
77212;BME280;66206;0.000;0.000;2023-02-23T06:35:19;97516.77;;;22.37;28.82
77212;BME280;66206;0.000;0.000;2023-02-23T06:37:46;97519.63;;;22.52;28.76
77212;BME280;66206;0.000;0.000;2023-02-23T06:40:13;97522.61;;;22.49;28.77
77212;BME280;66206;0.000;0.000;2023-02-23T06:42:39;97525.50;;;22.41;28.74
77212;BME280;66206;0.000;0.000;2023-02-23T06:45:07;97527.33;;;22.54;28.76
77212;BME280;66206;0.000;0.000;2023-02-23T06:47:33;97526.58;;;22.37;28.77
77212;BME280;66206;0.000;0.000;2023-02-23T06:50:00;97530.39;;;22.46;28.72
77212;BME280;66206;0.000;0.000;2023-02-23T06:52:27;97533.53;;;22.57;28.65
77212;BME280;66206;0.000;0.000;2023-02-23T06:54:53;97536.05;;;22.52;28.56
77212;BME280;66206;0.000;0.000;2023-02-23T06:57:20;97539.27;;;22.52;28.57
77212;BME280;66206;0.000;0.000;2023-02-23T06:59:47;97541.90;;;22.59;28.52
77212;BME280;66206;0.000;0.000;2023-02-23T07:02:13;97545.09;;;22.52;28.64
77212;BME280;66206;0.000;0.000;2023-02-23T07:04:40;97543.69;;;22.53;28.61
77212;BME280;66206;0.000;0.000;2023-02-23T07:07:07;97547.51;;;22.54;29.32
77212;BME280;66206;0.000;0.000;2023-02-23T07:09:34;97548.51;;;22.37;29.91
77212;BME280;66206;0.000;0.000;2023-02-23T07:12:00;97552.94;;;22.32;29.73
77212;BME280;66206;0.000;0.000;2023-02-23T07:14:27;97552.14;;;22.49;29.12
77212;BME280;66206;0.000;0.000;2023-02-23T07:16:54;97557.98;;;22.33;29.11
77212;BME280;66206;0.000;0.000;2023-02-23T07:19:21;97560.03;;;22.43;29.00
77212;BME280;66206;0.000;0.000;2023-02-23T07:21:47;97561.14;;;22.29;29.05
77212;BME280;66206;0.000;0.000;2023-02-23T07:24:14;97559.34;;;22.47;29.03
77212;BME280;66206;0.000;0.000;2023-02-23T07:26:41;97558.80;;;22.55;29.06
77212;BME280;66206;0.000;0.000;2023-02-23T07:29:08;97560.26;;;22.37;29.12
77212;BME280;66206;0.000;0.000;2023-02-23T07:31:36;97559.39;;;22.31;29.06
77212;BME280;66206;0.000;0.000;2023-02-23T07:34:03;97559.34;;;22.26;29.14
77212;BME280;66206;0.000;0.000;2023-02-23T07:36:29;97558.37;;;22.11;29.29
77212;BME280;66206;0.000;0.000;2023-02-23T07:38:56;97560.73;;;22.33;29.11
77212;BME280;66206;0.000;0.000;2023-02-23T07:41:23;97562.12;;;22.25;29.16
77212;BME280;66206;0.000;0.000;2023-02-23T07:43:49;97561.80;;;22.35;29.10
77212;BME280;66206;0.000;0.000;2023-02-23T07:46:16;97562.12;;;22.26;29.17
77212;BME280;66206;0.000;0.000;2023-02-23T07:48:43;97563.82;;;22.20;29.45
77212;BME280;66206;0.000;0.000;2023-02-23T07:51:10;97564.88;;;22.14;30.05
77212;BME280;66206;0.000;0.000;2023-02-23T07:53:37;97566.46;;;22.20;30.14
77212;BME280;66206;0.000;0.000;2023-02-23T07:56:04;97565.62;;;22.33;30.06
77212;BME280;66206;0.000;0.000;2023-02-23T07:58:31;97569.77;;;22.31;30.07
77212;BME280;66206;0.000;0.000;2023-02-23T08:00:58;97569.81;;;22.28;30.12
77212;BME280;66206;0.000;0.000;2023-02-23T08:03:24;97567.17;;;22.53;29.77
77212;BME280;66206;0.000;0.000;2023-02-23T08:05:51;97567.78;;;22.38;30.26
77212;BME280;66206;0.000;0.000;2023-02-23T08:08:18;97569.37;;;22.27;29.93
77212;BME280;66206;0.000;0.000;2023-02-23T08:10:45;97570.15;;;22.65;29.53
77212;BME280;66206;0.000;0.000;2023-02-23T08:13:12;97568.12;;;22.71;29.26
77212;BME280;66206;0.000;0.000;2023-02-23T08:15:39;97568.23;;;22.77;29.28
77212;BME280;66206;0.000;0.000;2023-02-23T08:18:06;97569.93;;;22.79;29.13
77212;BME280;66206;0.000;0.000;2023-02-23T08:20:32;97570.23;;;22.87;28.96
77212;BME280;66206;0.000;0.000;2023-02-23T08:22:59;97569.36;;;23.13;28.76
77212;BME280;66206;0.000;0.000;2023-02-23T08:25:26;97568.24;;;23.36;28.62
77212;BME280;66206;0.000;0.000;2023-02-23T08:27:53;97568.70;;;23.21;28.96
77212;BME280;66206;0.000;0.000;2023-02-23T08:30:20;97570.31;;;23.53;28.56
77212;BME280;66206;0.000;0.000;2023-02-23T08:32:48;97568.45;;;23.75;28.25
77212;BME280;66206;0.000;0.000;2023-02-23T08:35:15;97564.34;;;23.93;28.15
77212;BME280;66206;0.000;0.000;2023-02-23T08:37:42;97563.79;;;23.92;28.10
77212;BME280;66206;0.000;0.000;2023-02-23T08:40:09;97566.83;;;23.80;28.24
77212;BME280;66206;0.000;0.000;2023-02-23T08:42:36;97566.76;;;23.89;28.16
77212;BME280;66206;0.000;0.000;2023-02-23T08:45:03;97568.42;;;24.09;27.90
77212;BME280;66206;0.000;0.000;2023-02-23T08:47:30;97568.79;;;24.19;27.76
77212;BME280;66206;0.000;0.000;2023-02-23T08:49:56;97570.49;;;24.34;27.55
77212;BME280;66206;0.000;0.000;2023-02-23T08:52:23;97569.63;;;24.21;27.63
77212;BME280;66206;0.000;0.000;2023-02-23T08:54:50;97570.19;;;24.08;27.76
77212;BME280;66206;0.000;0.000;2023-02-23T08:57:17;97572.11;;;24.24;27.63
77212;BME280;66206;0.000;0.000;2023-02-23T08:59:43;97572.54;;;24.48;27.33
77212;BME280;66206;0.000;0.000;2023-02-23T09:02:10;97574.95;;;24.70;27.26
77212;BME280;66206;0.000;0.000;2023-02-23T09:04:37;97573.43;;;24.60;27.20
77212;BME280;66206;0.000;0.000;2023-02-23T09:07:04;97576.83;;;23.98;27.77
77212;BME280;66206;0.000;0.000;2023-02-23T09:09:31;97579.49;;;24.27;27.47
77212;BME280;66206;0.000;0.000;2023-02-23T09:11:58;97578.84;;;23.96;27.64
77212;BME280;66206;0.000;0.000;2023-02-23T09:14:24;97578.65;;;24.38;27.10
77212;BME280;66206;0.000;0.000;2023-02-23T09:16:51;97578.87;;;24.57;27.00
77212;BME280;66206;0.000;0.000;2023-02-23T09:19:18;97580.45;;;24.52;27.07
77212;BME280;66206;0.000;0.000;2023-02-23T09:21:44;97580.45;;;24.30;27.41
77212;BME280;66206;0.000;0.000;2023-02-23T09:24:11;97580.85;;;24.29;27.44
77212;BME280;66206;0.000;0.000;2023-02-23T09:26:38;97581.22;;;24.23;27.61
77212;BME280;66206;0.000;0.000;2023-02-23T09:29:05;97578.27;;;24.43;27.36
77212;BME280;66206;0.000;0.000;2023-02-23T09:31:32;97581.79;;;24.51;27.24
77212;BME280;66206;0.000;0.000;2023-02-23T09:33:59;97580.24;;;24.39;27.23
77212;BME280;66206;0.000;0.000;2023-02-23T09:36:26;97583.66;;;24.16;27.47
77212;BME280;66206;0.000;0.000;2023-02-23T09:38:53;97583.39;;;24.38;27.43
77212;BME280;66206;0.000;0.000;2023-02-23T09:41:26;97585.31;;;24.32;27.37
77212;BME280;66206;0.000;0.000;2023-02-23T09:43:52;97584.96;;;24.44;27.32
77212;BME280;66206;0.000;0.000;2023-02-23T09:46:18;97584.64;;;24.28;27.34
77212;BME280;66206;0.000;0.000;2023-02-23T09:48:42;97583.34;;;24.43;27.27
77212;BME280;66206;0.000;0.000;2023-02-23T09:51:09;97585.74;;;24.21;27.65
77212;BME280;66206;0.000;0.000;2023-02-23T09:53:37;97582.80;;;24.30;27.44
77212;BME280;66206;0.000;0.000;2023-02-23T09:56:06;97581.48;;;24.45;27.34
77212;BME280;66206;0.000;0.000;2023-02-23T09:58:31;97582.96;;;24.52;27.29
77212;BME280;66206;0.000;0.000;2023-02-23T10:01:05;97584.40;;;24.45;27.27
77212;BME280;66206;0.000;0.000;2023-02-23T10:03:26;97586.70;;;24.53;27.33
77212;BME280;66206;0.000;0.000;2023-02-23T10:05:57;97586.95;;;24.42;27.25
77212;BME280;66206;0.000;0.000;2023-02-23T10:08:30;97587.33;;;24.50;27.28
77212;BME280;66206;0.000;0.000;2023-02-23T10:10:54;97586.47;;;24.31;27.41
77212;BME280;66206;0.000;0.000;2023-02-23T10:13:21;97586.81;;;24.30;27.44
77212;BME280;66206;0.000;0.000;2023-02-23T10:15:49;97584.88;;;24.39;27.38
77212;BME280;66206;0.000;0.000;2023-02-23T10:18:21;97584.36;;;24.25;27.59
77212;BME280;66206;0.000;0.000;2023-02-23T10:20:46;97587.83;;;24.40;27.55
77212;BME280;66206;0.000;0.000;2023-02-23T10:23:16;97587.01;;;24.56;27.51
77212;BME280;66206;0.000;0.000;2023-02-23T10:25:42;97585.44;;;24.37;27.39
77212;BME280;66206;0.000;0.000;2023-02-23T10:28:11;97586.83;;;24.56;27.41
77212;BME280;66206;0.000;0.000;2023-02-23T10:30:38;97583.13;;;24.50;27.44
77212;BME280;66206;0.000;0.000;2023-02-23T10:33:09;97584.98;;;24.45;27.32
77212;BME280;66206;0.000;0.000;2023-02-23T10:35:33;97588.05;;;24.28;27.51
77212;BME280;66206;0.000;0.000;2023-02-23T10:38:01;97590.33;;;24.36;28.40
77212;BME280;66206;0.000;0.000;2023-02-23T10:40:29;97590.11;;;24.67;27.33
77212;BME280;66206;0.000;0.000;2023-02-23T10:42:57;97590.60;;;24.50;27.39
77212;BME280;66206;0.000;0.000;2023-02-23T10:45:26;97593.17;;;24.47;27.32
77212;BME280;66206;0.000;0.000;2023-02-23T10:47:54;97594.08;;;24.39;27.50
77212;BME280;66206;0.000;0.000;2023-02-23T10:50:24;97593.90;;;24.20;27.60
77212;BME280;66206;0.000;0.000;2023-02-23T10:52:51;97593.60;;;24.31;27.58
77212;BME280;66206;0.000;0.000;2023-02-23T10:55:22;97594.57;;;24.40;27.58
77212;BME280;66206;0.000;0.000;2023-02-23T10:57:49;97592.89;;;24.53;27.33
77212;BME280;66206;0.000;0.000;2023-02-23T11:00:32;97591.15;;;24.56;27.28
77212;BME280;66206;0.000;0.000;2023-02-23T11:02:44;97590.08;;;24.38;27.62
77212;BME280;66206;0.000;0.000;2023-02-23T11:05:25;97590.48;;;24.52;27.59
77212;BME280;66206;0.000;0.000;2023-02-23T11:07:37;97586.85;;;24.48;27.38
77212;BME280;66206;0.000;0.000;2023-02-23T11:10:36;97589.29;;;24.88;27.25
77212;BME280;66206;0.000;0.000;2023-02-23T11:12:35;97590.33;;;24.71;27.26
77212;BME280;66206;0.000;0.000;2023-02-23T11:15:20;97588.16;;;24.70;27.31
77212;BME280;66206;0.000;0.000;2023-02-23T11:17:30;97587.83;;;24.51;27.60
77212;BME280;66206;0.000;0.000;2023-02-23T11:19:58;97584.83;;;24.45;27.59
77212;BME280;66206;0.000;0.000;2023-02-23T11:22:25;97585.44;;;24.55;27.62
77212;BME280;66206;0.000;0.000;2023-02-23T11:24:50;97580.19;;;24.59;27.40
77212;BME280;66206;0.000;0.000;2023-02-23T11:27:19;97579.84;;;24.76;27.25
77212;BME280;66206;0.000;0.000;2023-02-23T11:29:46;97576.92;;;24.74;27.39
77212;BME280;66206;0.000;0.000;2023-02-23T11:32:15;97575.93;;;24.53;27.55
77212;BME280;66206;0.000;0.000;2023-02-23T11:34:42;97572.96;;;24.59;27.44
77212;BME280;66206;0.000;0.000;2023-02-23T11:37:18;97571.78;;;24.53;27.54
77212;BME280;66206;0.000;0.000;2023-02-23T11:39:35;97566.28;;;24.46;27.46
77212;BME280;66206;0.000;0.000;2023-02-23T11:42:03;97565.60;;;24.44;27.59
77212;BME280;66206;0.000;0.000;2023-02-23T11:44:30;97565.25;;;24.49;27.59
77212;BME280;66206;0.000;0.000;2023-02-23T11:46:57;97558.09;;;24.51;27.95
77212;BME280;66206;0.000;0.000;2023-02-23T11:49:25;97557.24;;;24.32;27.92
77212;BME280;66206;0.000;0.000;2023-02-23T11:51:52;97556.51;;;24.56;27.64
77212;BME280;66206;0.000;0.000;2023-02-23T11:54:20;97556.22;;;24.65;27.58
77212;BME280;66206;0.000;0.000;2023-02-23T11:56:49;97557.51;;;24.64;27.62
77212;BME280;66206;0.000;0.000;2023-02-23T11:59:16;97552.41;;;24.65;27.75
77212;BME280;66206;0.000;0.000;2023-02-23T12:01:44;97553.19;;;24.28;27.90
77212;BME280;66206;0.000;0.000;2023-02-23T12:04:22;97550.21;;;24.53;27.79
77212;BME280;66206;0.000;0.000;2023-02-23T12:06:39;97549.61;;;24.43;27.74
77212;BME280;66206;0.000;0.000;2023-02-23T12:09:11;97550.72;;;24.54;27.66
77212;BME280;66206;0.000;0.000;2023-02-23T12:11:37;97551.68;;;24.53;27.66
77212;BME280;66206;0.000;0.000;2023-02-23T12:14:08;97550.26;;;24.66;27.70
77212;BME280;66206;0.000;0.000;2023-02-23T12:16:37;97549.50;;;24.62;27.62
77212;BME280;66206;0.000;0.000;2023-02-23T12:19:07;97551.15;;;24.56;27.81
77212;BME280;66206;0.000;0.000;2023-02-23T12:21:33;97552.99;;;24.51;27.80
77212;BME280;66206;0.000;0.000;2023-02-23T12:24:02;97549.57;;;24.74;27.72
77212;BME280;66206;0.000;0.000;2023-02-23T12:26:26;97552.13;;;24.59;27.86
77212;BME280;66206;0.000;0.000;2023-02-23T12:28:55;97552.33;;;24.52;27.94
77212;BME280;66206;0.000;0.000;2023-02-23T12:31:25;97549.73;;;24.48;27.95
77212;BME280;66206;0.000;0.000;2023-02-23T12:33:54;97546.72;;;24.20;28.02
77212;BME280;66206;0.000;0.000;2023-02-23T12:36:25;97543.48;;;24.45;27.91
77212;BME280;66206;0.000;0.000;2023-02-23T12:38:49;97540.17;;;24.44;27.80
77212;BME280;66206;0.000;0.000;2023-02-23T12:41:19;97538.03;;;24.54;27.74
77212;BME280;66206;0.000;0.000;2023-02-23T12:43:47;97536.98;;;24.36;28.12
77212;BME280;66206;0.000;0.000;2023-02-23T12:46:17;97533.09;;;24.37;27.92
77212;BME280;66206;0.000;0.000;2023-02-23T12:48:46;97532.68;;;24.42;27.89
77212;BME280;66206;0.000;0.000;2023-02-23T12:51:12;97530.54;;;24.63;27.72
77212;BME280;66206;0.000;0.000;2023-02-23T12:53:38;97524.70;;;24.42;27.90
77212;BME280;66206;0.000;0.000;2023-02-23T12:56:11;97524.46;;;24.63;27.73
77212;BME280;66206;0.000;0.000;2023-02-23T12:58:34;97524.51;;;24.49;27.90
77212;BME280;66206;0.000;0.000;2023-02-23T13:01:01;97521.33;;;24.59;28.01
77212;BME280;66206;0.000;0.000;2023-02-23T13:03:32;97516.94;;;24.61;27.77
77212;BME280;66206;0.000;0.000;2023-02-23T13:05:55;97517.17;;;24.80;27.77
77212;BME280;66206;0.000;0.000;2023-02-23T13:08:21;97512.18;;;24.75;27.77
77212;BME280;66206;0.000;0.000;2023-02-23T13:10:53;97512.82;;;24.82;27.76
77212;BME280;66206;0.000;0.000;2023-02-23T13:13:19;97509.90;;;24.51;27.92